トビリシ の空港の天気 - METARとTAF

トビリシ国際空港 ( UGTB / TBS ) - ジョージア トビリシ
飛行場実況気象(Metar)
観測時間05/28 05:30 GET (05/28 01:30 UTC)
風向・風速北北西 3m/s
視程10km以上
天気現象
なし
気温15℃
湿度82%
気圧1021hPa
METARUGTB 280130Z 34005KT CAVOK 15/12 Q1021 NOSIG
過去の天気等 Google飛行場航空写真 Wunderground天気予報

過去48時間のMETAR

飛行場予報(TAF)
発表時間: 5/28 03:00 GET (5/27 23:00 UTC)
予報対象時間: 28日4時 GET ~ 29日4時 GET
風向・風速北西 5m/s
視程10km以上
なし
28日7時 GET ~ 28日9時 GET に徐々に
風向・風速不定 1m/s
28日12時 GET ~ 28日19時 GET に一時的に
風向・風速南南東 5m/s
28日19時 GET ~ 29日4時 GET に一時的に
全天の4割程度の積乱雲 雲底高度 1520m
TAF UGTB 272300Z 2800/2824 31010KT CAVOK TX29/2812Z TN13/2802Z
BECMG 2803/2805 VRB02KT
TEMPO 2808/2815 16010KT
TEMPO 2815/2824 SCT050CB